EGSH METAR and TAF | Updated Today

EGSH METAR

Norwich International Airport

Observation time: 16 min. ago

EGSH 052050Z 28004KT CAVOK 03/02 Q1045 NOSIG

Need help? Read our tutorial on how to read METARs or read the parsed version below.

Norwich International Airport (EGSH) METAR

  • Weather conditions on Sun, 05 Feb 2023 20:50:00 +0000 (16 min. ago):
  • Present conditions: Dry
  • Clouds: Clear skies
  • Visibility: Greater than 10 km
  • Wind: 280 degrees at 4 knots
  • Temperature: 3 celsius
  • Dew point: 2 celsius
  • Pressure: 1045 millibars
  • Remarks: None


Useful to know...

EGSH TAF

Norwich International Airport

TAF EGSH 051957Z 0521/0606 33008KT CAVOK PROB40 TEMPO 0600/0606 6000 BKN002 PROB30 0602/0606 0300 FZFG VV///
Observation time: 69 min. ago
Need help? Read our tutorial on how to read TAFs or read the parsed version below.

Parsed version of TAF for Norwich International Airport (EGSH)

  • From 05 February at 21:00 UTC, to day 06 of the month at 06:00 UTC
  • Visibility: Greater than 10 km
  • Wind: 330 degrees at 8
  • Expected to arise temporarily, from 06 February at 00:00 UTC, to day 06 of the month at 06:00 UTC
    Probability of 40%
  • Clouds: Broken sky at 61 meters
  • Visibility: 6000 meters
  • From 06 February at 02:00 UTC, to day 06 of the month at 06:00 UTC
    Probability of 30%
  • Clouds: Vertical visibility
  • Visibility: 300 meters
  • Other: Freezing fog